Time;durP1;ratioP1;P1;durP2;ratioP2;P2;SDS_P1;SDS_P2;PMS_P1;PMS_P2;Temp;Humidity;BMP_temperature;BMP_pressure;BME280_temperature;BME280_humidity;BME280_pressure;Samples;Min_cycle;Max_cycle;Signal;HPM_P1;HPM_P2
2023/07/04 00:01:20;;;;;;;13.63;2.65;;;;;;;;;;5083198;28;20021;-78
2023/07/04 00:03:47;;;;;;;17.92;3.40;;;;;;;;;;5085248;28;20017;-79
2023/07/04 00:06:14;;;;;;;7.30;2.42;;;;;;;;;;5082872;28;20044;-81
2023/07/04 00:08:43;;;;;;;8.73;2.60;;;;;;;;;;5085749;28;20035;-79
2023/07/04 00:11:09;;;;;;;9.13;2.22;;;;;;;;;;5085743;28;20111;-78
2023/07/04 00:13:38;;;;;;;10.00;2.70;;;;;;;;;;5085736;28;20025;-79
2023/07/04 00:16:20;;;;;;;10.93;2.25;;;;;;;;;;5092904;28;20029;-78
2023/07/04 00:18:48;;;;;;;8.32;2.72;;;;;;;;;;5088465;28;20052;-79
2023/07/04 00:21:17;;;;;;;13.40;3.25;;;;;;;;;;5086666;28;20160;-79
2023/07/04 00:23:47;;;;;;;10.38;2.97;;;;;;;;;;5084413;28;20033;-81
2023/07/04 00:26:17;;;;;;;11.40;2.67;;;;;;;;;;5085268;28;20029;-77
2023/07/04 00:28:46;;;;;;;10.27;2.55;;;;;;;;;;5085786;28;20044;-78
2023/07/04 00:31:16;;;;;;;11.88;2.60;;;;;;;;;;5087992;28;20096;-80
2023/07/04 00:33:43;;;;;;;7.47;2.33;;;;;;;;;;5084356;28;20109;-81
2023/07/04 00:36:11;;;;;;;5.72;2.15;;;;;;;;;;5086326;28;20025;-80
2023/07/04 00:38:38;;;;;;;6.82;2.58;;;;;;;;;;5084262;28;20016;-78
2023/07/04 00:41:11;;;;;;;9.20;2.20;;;;;;;;;;5089639;28;20122;-77
2023/07/04 00:43:58;;;;;;;10.63;2.60;;;;;;;;;;5088734;28;20032;-79
2023/07/04 00:46:37;;;;;;;12.57;2.55;;;;;;;;;;5085693;28;20020;-79
2023/07/04 00:49:06;;;;;;;12.77;3.13;;;;;;;;;;5083110;28;20044;-79
2023/07/04 00:51:35;;;;;;;13.15;3.30;;;;;;;;;;5086669;28;20051;-79
2023/07/04 00:54:04;;;;;;;10.50;2.30;;;;;;;;;;5083800;28;20028;-81
2023/07/04 00:56:33;;;;;;;10.77;2.72;;;;;;;;;;5090993;28;20020;-80
2023/07/04 00:59:05;;;;;;;9.55;2.78;;;;;;;;;;5087226;28;20496;-79
2023/07/04 01:01:36;;;;;;;12.35;2.28;;;;;;;;;;5081796;28;20021;-78
2023/07/04 01:04:03;;;;;;;9.82;2.80;;;;;;;;;;5086747;28;20033;-77
2023/07/04 01:06:29;;;;;;;15.65;3.40;;;;;;;;;;5085981;28;20029;-79
2023/07/04 01:08:59;;;;;;;12.52;2.72;;;;;;;;;;5085193;28;20048;-78
2023/07/04 01:11:30;;;;;;;21.23;4.05;;;;;;;;;;5086073;28;20023;-78
2023/07/04 01:14:17;;;;;;;13.40;3.33;;;;;;;;;;5122128;22;20110;-77
2023/07/04 01:16:43;;;;;;;12.77;3.00;;;;;;;;;;5051763;28;20055;-77
2023/07/04 01:19:10;;;;;;;16.33;2.75;;;;;;;;;;5064679;28;20040;-78
2023/07/04 01:21:36;;;;;;;9.38;3.22;;;;;;;;;;5049716;28;20025;-80
2023/07/04 01:24:18;;;;;;;8.15;2.65;;;;;;;;;;5054881;28;20060;-79
2023/07/04 01:26:48;;;;;;;9.55;1.98;;;;;;;;;;5047726;28;20081;-80
2023/07/04 01:29:15;;;;;;;15.90;3.08;;;;;;;;;;5047476;28;20045;-79
2023/07/04 01:31:43;;;;;;;9.18;2.17;;;;;;;;;;5051405;28;20026;-78
2023/07/04 01:34:16;;;;;;;9.57;2.80;;;;;;;;;;5047319;28;20049;-79
2023/07/04 01:36:42;;;;;;;20.17;3.10;;;;;;;;;;5063187;28;20013;-77
2023/07/04 01:39:14;;;;;;;9.60;2.80;;;;;;;;;;5047017;28;20089;-78
2023/07/04 01:41:40;;;;;;;16.80;3.40;;;;;;;;;;5063801;28;20030;-76
2023/07/04 01:44:10;;;;;;;9.90;2.60;;;;;;;;;;5047721;28;20053;-79
2023/07/04 01:46:36;;;;;;;13.65;2.83;;;;;;;;;;5049406;28;20022;-80
2023/07/04 01:49:03;;;;;;;22.85;3.40;;;;;;;;;;5046345;28;20045;-79
2023/07/04 01:51:30;;;;;;;13.60;2.72;;;;;;;;;;5051759;28;20013;-78
2023/07/04 01:53:56;;;;;;;9.43;2.37;;;;;;;;;;5050093;28;20097;-78
2023/07/04 01:56:23;;;;;;;16.40;3.47;;;;;;;;;;5048568;28;20017;-80
2023/07/04 01:58:49;;;;;;;11.13;2.53;;;;;;;;;;5051305;28;20120;-78
2023/07/04 02:01:15;;;;;;;9.25;2.55;;;;;;;;;;5064906;28;20013;-80
2023/07/04 02:03:43;;;;;;;13.02;2.38;;;;;;;;;;5047143;28;20029;-78
2023/07/04 02:06:09;;;;;;;12.82;2.65;;;;;;;;;;5064545;28;20009;-80
2023/07/04 02:08:35;;;;;;;8.88;2.70;;;;;;;;;;5047611;28;20032;-78
2023/07/04 02:11:02;;;;;;;9.23;2.87;;;;;;;;;;5065693;28;20022;-79
2023/07/04 02:13:28;;;;;;;20.20;3.57;;;;;;;;;;5049245;28;20066;-78
2023/07/04 02:15:55;;;;;;;9.25;3.35;;;;;;;;;;5063081;28;20104;-78
2023/07/04 02:18:22;;;;;;;11.63;2.97;;;;;;;;;;5062641;28;20029;-77
2023/07/04 02:20:48;;;;;;;11.93;3.08;;;;;;;;;;5064360;28;20045;-78
2023/07/04 02:23:14;;;;;;;15.90;3.60;;;;;;;;;;5064964;28;20030;-80
2023/07/04 02:25:43;;;;;;;14.25;2.45;;;;;;;;;;5062629;28;20055;-79
2023/07/04 02:28:10;;;;;;;12.27;2.70;;;;;;;;;;5049326;28;20109;-77
2023/07/04 02:30:36;;;;;;;11.73;2.77;;;;;;;;;;5063868;28;20009;-77
2023/07/04 02:33:02;;;;;;;15.10;3.27;;;;;;;;;;5048187;28;20022;-79
2023/07/04 02:35:29;;;;;;;14.50;2.97;;;;;;;;;;5049068;28;20048;-79
2023/07/04 02:37:55;;;;;;;10.67;3.10;;;;;;;;;;5048561;28;20044;-79
2023/07/04 02:40:24;;;;;;;13.87;3.03;;;;;;;;;;5047720;28;20044;-80
2023/07/04 02:42:50;;;;;;;10.73;2.63;;;;;;;;;;5064392;28;20017;-77
2023/07/04 02:45:16;;;;;;;14.47;3.10;;;;;;;;;;5046001;28;20022;-79
2023/07/04 02:47:42;;;;;;;20.93;3.87;;;;;;;;;;5060431;28;20064;-79
2023/07/04 02:50:11;;;;;;;13.97;3.40;;;;;;;;;;5063198;28;20104;-79
2023/07/04 02:52:37;;;;;;;12.40;2.80;;;;;;;;;;5063295;28;20037;-81
2023/07/04 02:55:03;;;;;;;20.50;3.07;;;;;;;;;;5046023;28;20029;-78
2023/07/04 02:57:29;;;;;;;7.60;2.40;;;;;;;;;;5049022;28;20029;-77
2023/07/04 02:59:56;;;;;;;19.37;2.67;;;;;;;;;;5047783;28;20545;-78
2023/07/04 03:02:23;;;;;;;10.47;3.10;;;;;;;;;;5045514;28;20013;-78
2023/07/04 03:04:51;;;;;;;10.97;3.60;;;;;;;;;;5051244;28;20108;-80
2023/07/04 03:07:17;;;;;;;12.47;3.20;;;;;;;;;;5046803;28;20060;-79
2023/07/04 03:09:43;;;;;;;18.70;3.33;;;;;;;;;;5046120;28;20048;-80
2023/07/04 03:12:09;;;;;;;16.17;3.87;;;;;;;;;;5047997;28;20013;-78
2023/07/04 03:14:35;;;;;;;15.97;3.43;;;;;;;;;;5062987;28;20040;-80
2023/07/04 03:17:01;;;;;;;10.47;2.90;;;;;;;;;;5047691;28;20042;-80
2023/07/04 03:19:27;;;;;;;13.23;2.87;;;;;;;;;;5046788;28;20042;-81
2023/07/04 03:21:53;;;;;;;17.13;3.47;;;;;;;;;;5064493;28;20044;-79
2023/07/04 03:24:20;;;;;;;14.90;2.80;;;;;;;;;;5047617;28;20029;-77
2023/07/04 03:26:46;;;;;;;11.70;3.03;;;;;;;;;;5047494;28;20034;-80
2023/07/04 03:29:13;;;;;;;9.37;2.77;;;;;;;;;;5048184;28;20033;-77
2023/07/04 03:31:39;;;;;;;10.20;2.43;;;;;;;;;;5048029;28;20013;-79
2023/07/04 03:34:07;;;;;;;13.83;3.43;;;;;;;;;;5046649;28;20104;-81
2023/07/04 03:36:33;;;;;;;14.00;3.60;;;;;;;;;;5049842;28;20022;-78
2023/07/04 03:38:59;;;;;;;15.53;3.33;;;;;;;;;;5047686;28;20018;-77
2023/07/04 03:41:25;;;;;;;11.50;2.93;;;;;;;;;;5048160;28;20033;-77
2023/07/04 03:43:51;;;;;;;21.70;3.77;;;;;;;;;;5052479;28;20037;-78
2023/07/04 03:46:17;;;;;;;19.93;3.77;;;;;;;;;;5067431;28;20033;-78
2023/07/04 03:48:43;;;;;;;13.30;3.33;;;;;;;;;;5069214;28;20104;-78
2023/07/04 03:51:09;;;;;;;20.00;4.10;;;;;;;;;;5052303;28;20017;-78
2023/07/04 03:53:37;;;;;;;21.17;3.93;;;;;;;;;;5049934;28;20026;-78
2023/07/04 03:56:12;;;;;;;12.70;3.20;;;;;;;;;;5049653;28;20075;-80
2023/07/04 03:58:38;;;;;;;11.77;3.00;;;;;;;;;;5050488;28;20042;-78
2023/07/04 04:01:06;;;;;;;10.80;2.90;;;;;;;;;;5051035;28;20045;-79
2023/07/04 04:03:36;;;;;;;15.53;3.43;;;;;;;;;;5051280;28;20053;-77
2023/07/04 04:06:03;;;;;;;13.90;3.33;;;;;;;;;;5053299;28;20071;-78
2023/07/04 04:08:29;;;;;;;14.33;2.77;;;;;;;;;;5051348;28;20049;-77
2023/07/04 04:10:55;;;;;;;18.47;3.20;;;;;;;;;;5049244;28;20101;-80
2023/07/04 04:13:21;;;;;;;16.80;3.87;;;;;;;;;;5052483;28;20013;-80
2023/07/04 04:15:47;;;;;;;14.30;3.70;;;;;;;;;;5066513;28;20040;-77
2023/07/04 04:18:13;;;;;;;21.83;4.30;;;;;;;;;;5050842;28;20021;-78
2023/07/04 04:20:39;;;;;;;12.60;3.40;;;;;;;;;;5053106;28;20029;-80
2023/07/04 04:23:06;;;;;;;18.00;3.10;;;;;;;;;;5049767;28;20040;-77
2023/07/04 04:25:38;;;;;;;12.33;3.40;;;;;;;;;;5066507;28;20021;-77
2023/07/04 04:28:07;;;;;;;11.77;2.65;;;;;;;;;;5049719;28;20025;-78
2023/07/04 04:30:34;;;;;;;17.50;4.07;;;;;;;;;;5051256;28;20986;-77
2023/07/04 04:33:02;;;;;;;10.57;3.63;;;;;;;;;;5049282;28;20029;-78
2023/07/04 04:35:28;;;;;;;18.30;4.40;;;;;;;;;;5057248;28;20084;-78
2023/07/04 04:37:54;;;;;;;16.80;3.27;;;;;;;;;;5052006;28;20049;-80
2023/07/04 04:40:21;;;;;;;14.57;3.10;;;;;;;;;;5067646;28;20077;-79
2023/07/04 04:42:55;;;;;;;13.80;2.97;;;;;;;;;;5050252;28;20130;-77
2023/07/04 04:45:21;;;;;;;13.20;2.80;;;;;;;;;;5050784;28;20033;-78
2023/07/04 04:47:52;;;;;;;10.87;2.90;;;;;;;;;;5049408;28;20039;-78
2023/07/04 04:50:19;;;;;;;13.33;3.20;;;;;;;;;;5068316;28;20021;-79
2023/07/04 04:52:48;;;;;;;14.13;3.20;;;;;;;;;;5047202;28;20025;-77
2023/07/04 04:55:16;;;;;;;17.13;3.77;;;;;;;;;;5050428;28;20025;-77
2023/07/04 04:57:42;;;;;;;17.43;4.57;;;;;;;;;;5065430;28;20043;-79
2023/07/04 05:00:10;;;;;;;16.43;3.70;;;;;;;;;;5050885;28;20033;-78
2023/07/04 05:02:36;;;;;;;13.67;2.93;;;;;;;;;;5066644;28;20029;-79
2023/07/04 05:05:03;;;;;;;12.90;3.43;;;;;;;;;;5064676;28;20037;-80
2023/07/04 05:07:29;;;;;;;16.30;4.03;;;;;;;;;;5065014;28;20029;-78
2023/07/04 05:09:59;;;;;;;13.65;3.22;;;;;;;;;;5048019;28;20050;-79
2023/07/04 05:12:25;;;;;;;16.03;4.00;;;;;;;;;;5050211;28;20026;-80
2023/07/04 05:14:51;;;;;;;21.38;4.00;;;;;;;;;;5064708;28;20060;-79
2023/07/04 05:17:17;;;;;;;22.00;4.43;;;;;;;;;;5051957;28;20037;-78
2023/07/04 05:19:43;;;;;;;21.10;3.73;;;;;;;;;;5047873;28;20018;-78
2023/07/04 05:22:10;;;;;;;18.77;3.63;;;;;;;;;;5047043;28;20018;-76
2023/07/04 05:24:36;;;;;;;17.13;3.30;;;;;;;;;;5051338;28;20040;-81
2023/07/04 05:27:02;;;;;;;17.17;3.67;;;;;;;;;;5047794;28;20033;-79
2023/07/04 05:29:28;;;;;;;13.03;3.67;;;;;;;;;;5046607;28;20041;-77
2023/07/04 05:31:54;;;;;;;11.27;3.17;;;;;;;;;;5048349;28;20068;-78
2023/07/04 05:34:20;;;;;;;19.73;3.90;;;;;;;;;;5045359;28;20034;-81
2023/07/04 05:36:46;;;;;;;16.77;3.60;;;;;;;;;;5064236;28;20017;-78
2023/07/04 05:39:14;;;;;;;14.03;3.60;;;;;;;;;;5047837;28;20043;-79
2023/07/04 05:41:40;;;;;;;15.10;2.97;;;;;;;;;;5047555;28;20022;-78
2023/07/04 05:44:10;;;;;;;18.42;4.03;;;;;;;;;;5055041;28;20105;-77
2023/07/04 05:46:37;;;;;;;13.32;3.63;;;;;;;;;;5051634;28;21090;-78
2023/07/04 05:49:04;;;;;;;14.48;3.88;;;;;;;;;;5045910;28;20045;-79
2023/07/04 05:51:30;;;;;;;14.82;3.35;;;;;;;;;;5062286;28;20030;-81
2023/07/04 05:53:56;;;;;;;17.85;3.85;;;;;;;;;;5050595;28;20093;-77
2023/07/04 05:56:25;;;;;;;12.45;3.75;;;;;;;;;;5048164;28;20037;-80
2023/07/04 05:58:54;;;;;;;15.02;3.22;;;;;;;;;;5065557;28;20036;-82
2023/07/04 06:01:23;;;;;;;12.20;2.45;;;;;;;;;;5049866;28;20027;-78
2023/07/04 06:03:50;;;;;;;16.73;3.58;;;;;;;;;;5047719;28;20010;-78
2023/07/04 06:06:30;;;;;;;15.45;3.47;;;;;;;;;;5065409;28;20033;-79
2023/07/04 06:08:57;;;;;;;11.68;3.05;;;;;;;;;;5048423;28;20045;-77
2023/07/04 06:11:26;;;;;;;18.80;4.45;;;;;;;;;;5065004;28;20025;-78
2023/07/04 06:13:52;;;;;;;16.20;3.63;;;;;;;;;;5050791;28;20081;-78
2023/07/04 06:16:18;;;;;;;13.80;2.83;;;;;;;;;;5062724;28;20037;-81
2023/07/04 06:18:44;;;;;;;16.77;3.88;;;;;;;;;;5051224;28;20029;-77
2023/07/04 06:21:12;;;;;;;18.50;4.70;;;;;;;;;;5046746;28;20081;-78
2023/07/04 06:23:38;;;;;;;19.92;3.63;;;;;;;;;;5064344;28;20064;-82
2023/07/04 06:26:05;;;;;;;21.23;4.57;;;;;;;;;;5052441;28;20101;-79
2023/07/04 06:28:31;;;;;;;13.52;3.47;;;;;;;;;;5048102;28;20017;-79
2023/07/04 06:30:57;;;;;;;26.77;4.38;;;;;;;;;;5062622;28;20053;-80
2023/07/04 06:33:23;;;;;;;21.02;3.55;;;;;;;;;;5064291;28;20032;-78
2023/07/04 06:35:49;;;;;;;17.60;3.95;;;;;;;;;;5061230;28;20021;-77
2023/07/04 06:38:15;;;;;;;17.90;4.30;;;;;;;;;;5047018;28;20033;-78
2023/07/04 06:40:41;;;;;;;12.25;3.22;;;;;;;;;;5048329;28;20037;-79
2023/07/04 06:43:14;;;;;;;21.73;4.68;;;;;;;;;;5045663;28;20060;-79
2023/07/04 06:45:46;;;;;;;18.60;3.40;;;;;;;;;;5061537;28;20065;-77
2023/07/04 06:48:12;;;;;;;21.13;3.85;;;;;;;;;;5049074;28;20029;-79
2023/07/04 06:50:38;;;;;;;23.42;4.32;;;;;;;;;;5062425;28;20048;-77
2023/07/04 06:53:04;;;;;;;20.10;3.47;;;;;;;;;;5063258;28;20032;-80
2023/07/04 06:55:30;;;;;;;14.43;3.00;;;;;;;;;;5043037;28;20043;-82
2023/07/04 06:57:56;;;;;;;16.67;3.97;;;;;;;;;;5062145;28;20042;-78
2023/07/04 07:00:22;;;;;;;13.73;3.97;;;;;;;;;;5047103;28;20022;-79
2023/07/04 07:02:50;;;;;;;12.52;3.13;;;;;;;;;;5046033;28;20033;-77
2023/07/04 07:05:16;;;;;;;15.18;3.63;;;;;;;;;;5045642;28;21022;-77
2023/07/04 07:07:42;;;;;;;16.35;4.38;;;;;;;;;;5045151;28;20081;-77
2023/07/04 07:10:08;;;;;;;13.02;3.63;;;;;;;;;;5046562;28;20053;-77
2023/07/04 07:12:35;;;;;;;12.85;3.78;;;;;;;;;;5047888;28;20049;-76
2023/07/04 07:15:01;;;;;;;17.55;3.50;;;;;;;;;;5045988;28;20064;-79
2023/07/04 07:17:27;;;;;;;13.20;3.00;;;;;;;;;;5050860;28;20025;-79
2023/07/04 07:19:56;;;;;;;17.00;3.95;;;;;;;;;;5064492;28;20025;-78
2023/07/04 07:22:22;;;;;;;15.77;3.55;;;;;;;;;;5064393;28;20033;-76
2023/07/04 07:24:48;;;;;;;18.10;3.72;;;;;;;;;;5051211;28;20140;-78
2023/07/04 07:27:16;;;;;;;11.98;2.90;;;;;;;;;;5047755;28;20034;-79
2023/07/04 07:29:42;;;;;;;14.80;3.08;;;;;;;;;;5048964;28;20025;-77
2023/07/04 07:32:09;;;;;;;13.43;2.72;;;;;;;;;;5065756;28;20141;-77
2023/07/04 07:34:35;;;;;;;13.57;2.70;;;;;;;;;;5046804;28;20052;-77
2023/07/04 07:37:01;;;;;;;12.13;3.33;;;;;;;;;;5047439;28;20021;-77
2023/07/04 07:39:27;;;;;;;14.25;3.33;;;;;;;;;;5048522;28;20024;-78
2023/07/04 07:41:55;;;;;;;13.50;3.30;;;;;;;;;;5050238;28;20018;-77
2023/07/04 07:44:24;;;;;;;13.35;3.40;;;;;;;;;;5052953;28;20061;-79
2023/07/04 07:46:50;;;;;;;11.15;3.05;;;;;;;;;;5051482;28;20094;-79
2023/07/04 07:49:16;;;;;;;17.52;3.58;;;;;;;;;;5049142;28;20055;-78
2023/07/04 07:51:43;;;;;;;15.48;3.63;;;;;;;;;;5063044;28;20028;-77
2023/07/04 07:54:10;;;;;;;14.75;3.65;;;;;;;;;;5064682;28;20021;-78
2023/07/04 07:56:44;;;;;;;16.00;3.65;;;;;;;;;;5064817;28;20017;-79
2023/07/04 07:59:10;;;;;;;12.32;2.97;;;;;;;;;;5051665;28;20021;-79
2023/07/04 08:01:36;;;;;;;15.55;3.80;;;;;;;;;;5052396;28;20036;-78
2023/07/04 08:04:03;;;;;;;9.80;3.35;;;;;;;;;;5047218;28;20044;-79
2023/07/04 08:06:29;;;;;;;14.43;2.85;;;;;;;;;;5061207;28;20025;-79
2023/07/04 08:08:58;;;;;;;19.30;3.42;;;;;;;;;;5048630;28;20029;-80
2023/07/04 08:11:25;;;;;;;9.43;2.78;;;;;;;;;;5043655;28;20036;-78
2023/07/04 08:13:51;;;;;;;14.57;2.83;;;;;;;;;;5062403;28;20069;-77
2023/07/04 08:16:19;;;;;;;12.23;3.00;;;;;;;;;;5049145;28;20010;-80
2023/07/04 08:18:45;;;;;;;18.73;3.92;;;;;;;;;;5048523;28;20029;-78
2023/07/04 08:21:11;;;;;;;12.88;2.53;;;;;;;;;;5045598;28;20034;-78
2023/07/04 08:23:37;;;;;;;14.85;2.45;;;;;;;;;;5049756;28;20161;-79
2023/07/04 08:26:03;;;;;;;14.45;2.83;;;;;;;;;;5050663;28;20038;-80
2023/07/04 08:28:29;;;;;;;12.25;3.00;;;;;;;;;;5047895;28;20034;-78
2023/07/04 08:31:03;;;;;;;8.50;2.55;;;;;;;;;;5049376;28;20033;-80
2023/07/04 08:33:29;;;;;;;10.70;2.85;;;;;;;;;;5046922;28;20109;-81
2023/07/04 08:35:58;;;;;;;13.55;3.30;;;;;;;;;;5046080;28;20048;-78
2023/07/04 08:38:25;;;;;;;15.90;2.83;;;;;;;;;;5063910;28;20069;-78
2023/07/04 08:40:51;;;;;;;12.07;3.10;;;;;;;;;;5050863;28;20048;-78
2023/07/04 08:43:36;;;;;;;12.45;2.55;;;;;;;;;;5063664;28;20021;-79
2023/07/04 08:46:07;;;;;;;9.20;2.63;;;;;;;;;;5045763;28;20025;-81
2023/07/04 08:48:33;;;;;;;12.77;2.15;;;;;;;;;;5061671;28;20033;-79
2023/07/04 08:51:02;;;;;;;7.93;2.53;;;;;;;;;;5047469;28;20021;-79
2023/07/04 08:53:29;;;;;;;13.13;2.70;;;;;;;;;;5043848;28;20044;-79
2023/07/04 08:55:59;;;;;;;12.30;2.88;;;;;;;;;;5045235;28;20010;-80
2023/07/04 08:58:28;;;;;;;10.82;2.70;;;;;;;;;;5049827;28;20037;-79
2023/07/04 09:00:55;;;;;;;12.75;2.63;;;;;;;;;;5042047;28;20051;-77
2023/07/04 09:03:45;;;;;;;9.27;2.72;;;;;;;;;;5049720;28;20036;-80
2023/07/04 09:06:14;;;;;;;10.18;2.20;;;;;;;;;;5059240;28;20029;-80
2023/07/04 09:08:43;;;;;;;7.93;2.55;;;;;;;;;;5044575;28;20037;-79
2023/07/04 09:11:10;;;;;;;10.43;2.65;;;;;;;;;;5062343;28;20111;-80
2023/07/04 09:13:41;;;;;;;12.95;2.83;;;;;;;;;;5045283;28;20026;-80
2023/07/04 09:16:09;;;;;;;15.30;2.80;;;;;;;;;;5045507;28;20033;-80
2023/07/04 09:18:39;;;;;;;12.35;2.47;;;;;;;;;;5061649;28;20727;-78
2023/07/04 09:21:19;;;;;;;11.90;2.70;;;;;;;;;;5051735;28;20086;-79
2023/07/04 09:23:46;;;;;;;8.88;2.10;;;;;;;;;;5050722;28;20619;-80
2023/07/04 09:26:13;;;;;;;10.60;3.08;;;;;;;;;;5060694;28;20025;-78
2023/07/04 09:28:41;;;;;;;10.07;2.75;;;;;;;;;;5050192;28;20036;-78
2023/07/04 09:31:09;;;;;;;12.00;2.97;;;;;;;;;;5045184;28;20089;-78
2023/07/04 09:33:36;;;;;;;12.55;2.95;;;;;;;;;;5046572;28;20018;-81
2023/07/04 09:36:03;;;;;;;8.90;3.05;;;;;;;;;;5045987;28;20029;-79
2023/07/04 09:38:50;;;;;;;7.75;2.47;;;;;;;;;;5049069;28;20029;-77
2023/07/04 09:41:16;;;;;;;17.25;3.90;;;;;;;;;;5058436;28;20097;-78
2023/07/04 09:43:42;;;;;;;10.23;3.28;;;;;;;;;;5059950;28;20085;-77
2023/07/04 09:46:11;;;;;;;7.18;2.65;;;;;;;;;;5046371;28;20049;-81
2023/07/04 09:48:37;;;;;;;15.20;3.50;;;;;;;;;;5050239;28;20042;-79
2023/07/04 09:51:18;;;;;;;11.48;3.35;;;;;;;;;;5047668;28;20022;-80
2023/07/04 09:53:45;;;;;;;11.65;3.13;;;;;;;;;;5049964;28;20035;-77
2023/07/04 09:56:11;;;;;;;10.20;2.72;;;;;;;;;;5047622;28;20032;-78
2023/07/04 09:58:37;;;;;;;9.13;2.92;;;;;;;;;;5063535;28;20030;-79
2023/07/04 10:01:09;;;;;;;11.57;3.13;;;;;;;;;;5046687;28;20143;-79
2023/07/04 10:03:36;;;;;;;10.23;2.88;;;;;;;;;;5153337;22;20048;-78
2023/07/04 10:06:12;;;;;;;17.15;3.35;;;;;;;;;;5210480;22;20335;-78
2023/07/04 10:08:54;;;;;;;12.50;3.38;;;;;;;;;;5236448;22;20056;-80
2023/07/04 10:11:25;;;;;;;13.85;3.38;;;;;;;;;;5027086;28;20042;-79
2023/07/04 10:13:58;;;;;;;13.00;3.55;;;;;;;;;;5025707;28;20059;-80
2023/07/04 10:16:25;;;;;;;14.68;3.80;;;;;;;;;;5033785;28;20141;-79
2023/07/04 10:18:51;;;;;;;11.00;3.58;;;;;;;;;;5029432;28;20041;-79
2023/07/04 10:21:18;;;;;;;12.93;3.15;;;;;;;;;;5036235;28;20085;-80
2023/07/04 10:23:44;;;;;;;13.18;3.72;;;;;;;;;;5032109;28;20048;-79
2023/07/04 10:26:12;;;;;;;12.15;3.63;;;;;;;;;;5033162;28;20022;-78
2023/07/04 10:28:39;;;;;;;15.43;3.45;;;;;;;;;;5032216;28;20109;-79
2023/07/04 10:31:14;;;;;;;14.30;3.65;;;;;;;;;;5025030;28;20025;-79
2023/07/04 10:34:13;;;;;;;16.10;3.80;;;;;;;;;;5031786;28;20030;-77
2023/07/04 10:36:40;;;;;;;11.13;3.70;;;;;;;;;;5013312;28;20038;-78
2023/07/04 10:39:10;;;;;;;10.65;3.65;;;;;;;;;;5029591;28;20014;-79
2023/07/04 10:41:45;;;;;;;12.63;3.15;;;;;;;;;;5044972;28;20025;-79
2023/07/04 10:44:14;;;;;;;10.75;3.83;;;;;;;;;;5047180;28;20052;-78
2023/07/04 10:46:46;;;;;;;10.40;4.28;;;;;;;;;;5032776;28;20125;-81
2023/07/04 10:49:16;;;;;;;13.50;4.00;;;;;;;;;;5030254;28;20048;-79
2023/07/04 10:51:43;;;;;;;10.10;3.67;;;;;;;;;;5028497;28;20013;-80
2023/07/04 10:54:11;;;;;;;11.15;3.88;;;;;;;;;;5046206;28;20018;-77
2023/07/04 10:56:40;;;;;;;8.30;3.50;;;;;;;;;;5027868;28;20025;-78
2023/07/04 10:59:15;;;;;;;11.43;3.20;;;;;;;;;;5031428;28;20029;-77
2023/07/04 11:01:43;;;;;;;10.60;3.33;;;;;;;;;;5025712;28;20034;-78
2023/07/04 11:04:24;;;;;;;10.43;3.42;;;;;;;;;;5030281;28;20037;-78
2023/07/04 11:07:02;;;;;;;15.35;3.90;;;;;;;;;;5043782;28;20093;-79
2023/07/04 11:09:33;;;;;;;11.65;3.60;;;;;;;;;;5046262;28;20083;-78
2023/07/04 11:12:01;;;;;;;12.00;3.55;;;;;;;;;;5032844;28;20039;-78
2023/07/04 11:14:28;;;;;;;7.95;3.75;;;;;;;;;;5030557;28;20094;-80
2023/07/04 11:16:55;;;;;;;12.50;3.95;;;;;;;;;;5044985;28;20025;-78
2023/07/04 11:19:23;;;;;;;10.43;3.45;;;;;;;;;;5042253;28;21088;-78
2023/07/04 11:21:55;;;;;;;9.80;3.53;;;;;;;;;;5037657;28;20014;-80
2023/07/04 11:24:21;;;;;;;9.98;3.40;;;;;;;;;;5034911;28;20040;-80
2023/07/04 11:26:50;;;;;;;10.38;3.22;;;;;;;;;;5024385;28;20061;-78
2023/07/04 11:29:18;;;;;;;10.73;3.72;;;;;;;;;;5029432;28;20041;-79
2023/07/04 11:32:03;;;;;;;9.02;3.90;;;;;;;;;;5045577;28;20040;-77
2023/07/04 11:34:47;;;;;;;13.52;4.15;;;;;;;;;;5031823;28;20113;-78
2023/07/04 11:37:18;;;;;;;11.15;4.20;;;;;;;;;;5046051;28;20026;-80
2023/07/04 11:39:48;;;;;;;10.32;4.30;;;;;;;;;;5025631;28;20085;-79
2023/07/04 11:42:19;;;;;;;9.32;3.40;;;;;;;;;;5035824;28;20033;-78
2023/07/04 11:44:59;;;;;;;11.98;3.88;;;;;;;;;;5045615;28;20098;-77
2023/07/04 11:47:44;;;;;;;11.77;3.60;;;;;;;;;;5027972;28;20501;-77
2023/07/04 11:50:12;;;;;;;10.75;3.83;;;;;;;;;;5041792;28;20060;-78
2023/07/04 11:52:40;;;;;;;8.30;3.78;;;;;;;;;;5030927;28;20060;-78
2023/07/04 11:55:17;;;;;;;12.13;4.72;;;;;;;;;;5043920;28;20105;-78
2023/07/04 11:58:15;;;;;;;9.50;3.95;;;;;;;;;;5027771;28;20026;-80
2023/07/04 12:00:43;;;;;;;12.32;3.95;;;;;;;;;;5027874;28;20032;-78
2023/07/04 12:03:19;;;;;;;11.27;3.97;;;;;;;;;;5029979;28;20025;-79
2023/07/04 12:05:58;;;;;;;14.45;4.05;;;;;;;;;;5025552;28;20026;-79
2023/07/04 12:08:33;;;;;;;11.25;3.88;;;;;;;;;;5046350;28;20031;-78
2023/07/04 12:11:00;;;;;;;11.02;3.85;;;;;;;;;;5032152;28;20037;-80
2023/07/04 12:13:28;;;;;;;12.27;4.35;;;;;;;;;;5032749;28;20097;-79
2023/07/04 12:15:55;;;;;;;12.90;4.25;;;;;;;;;;5045335;28;20026;-81
2023/07/04 12:18:28;;;;;;;11.55;3.85;;;;;;;;;;5033842;28;20029;-81
2023/07/04 12:20:54;;;;;;;10.52;4.47;;;;;;;;;;5039503;28;20040;-78
2023/07/04 12:23:21;;;;;;;9.23;4.38;;;;;;;;;;5027842;28;20034;-81
2023/07/04 12:25:51;;;;;;;7.90;4.20;;;;;;;;;;5021991;28;20029;-81
2023/07/04 12:28:18;;;;;;;11.30;4.50;;;;;;;;;;5027159;28;20339;-80
2023/07/04 12:30:56;;;;;;;8.93;4.78;;;;;;;;;;5020207;28;20569;-83
2023/07/04 12:33:29;;;;;;;12.02;4.63;;;;;;;;;;5020063;28;20041;-81
2023/07/04 12:36:00;;;;;;;14.60;4.55;;;;;;;;;;5017093;28;20098;-84
2023/07/04 12:38:27;;;;;;;13.73;4.55;;;;;;;;;;5007033;28;20026;-84
2023/07/04 12:40:53;;;;;;;11.45;4.20;;;;;;;;;;5016249;28;20064;-84
2023/07/04 12:43:21;;;;;;;11.45;4.70;;;;;;;;;;5028153;28;20030;-85
2023/07/04 12:45:47;;;;;;;9.75;4.70;;;;;;;;;;5015427;28;20026;-85
2023/07/04 12:48:14;;;;;;;12.68;5.03;;;;;;;;;;5026977;28;20033;-85
2023/07/04 12:50:45;;;;;;;12.75;4.43;;;;;;;;;;5037249;28;20448;-85
2023/07/04 12:53:11;;;;;;;10.60;4.60;;;;;;;;;;5021286;28;20103;-83
2023/07/04 12:55:39;;;;;;;12.55;4.93;;;;;;;;;;5011449;28;20065;-84
2023/07/04 12:58:05;;;;;;;17.17;4.80;;;;;;;;;;5006099;28;20112;-86
2023/07/04 13:00:33;;;;;;;15.40;5.63;;;;;;;;;;5005752;28;20029;-87
2023/07/04 13:03:02;;;;;;;12.50;4.82;;;;;;;;;;5009589;28;20034;-87
2023/07/04 13:05:32;;;;;;;12.15;4.82;;;;;;;;;;5010078;28;20360;-85
2023/07/04 13:07:58;;;;;;;10.57;4.57;;;;;;;;;;5009193;28;20034;-86
2023/07/04 13:10:28;;;;;;;11.70;4.88;;;;;;;;;;5016261;28;20082;-83
2023/07/04 13:12:55;;;;;;;12.05;5.03;;;;;;;;;;5018055;28;20109;-85
2023/07/04 13:15:28;;;;;;;10.18;4.50;;;;;;;;;;5025295;28;20021;-86
2023/07/04 13:17:56;;;;;;;11.00;4.75;;;;;;;;;;5011278;28;20018;-86
2023/07/04 13:20:22;;;;;;;10.52;5.18;;;;;;;;;;5016320;28;20028;-83
2023/07/04 13:22:48;;;;;;;10.35;5.30;;;;;;;;;;5016233;28;20041;-86
2023/07/04 13:25:18;;;;;;;14.27;5.85;;;;;;;;;;5025020;28;20045;-85
2023/07/04 13:27:43;;;;;;;8.80;5.25;;;;;;;;;;5028867;28;20026;-85
2023/07/04 13:30:22;;;;;;;12.05;4.40;;;;;;;;;;5028935;28;20048;-85
2023/07/04 13:32:48;;;;;;;10.45;5.30;;;;;;;;;;5022088;28;20336;-85
2023/07/04 13:35:29;;;;;;;11.02;5.18;;;;;;;;;;5011074;28;20032;-84
2023/07/04 13:37:55;;;;;;;13.38;5.18;;;;;;;;;;5008762;28;20054;-85
2023/07/04 13:40:21;;;;;;;8.93;5.18;;;;;;;;;;5015250;28;20033;-90
2023/07/04 13:43:08;;;;;;;8.48;4.82;;;;;;;;;;5012518;28;20044;-86
2023/07/04 13:45:34;;;;;;;16.17;5.38;;;;;;;;;;5005650;28;20509;-87
2023/07/04 13:48:03;;;;;;;12.70;5.65;;;;;;;;;;5024184;28;20043;-85
2023/07/04 13:50:29;;;;;;;9.73;5.13;;;;;;;;;;5005059;28;20025;-85
2023/07/04 13:52:55;;;;;;;8.45;4.95;;;;;;;;;;5015964;28;20099;-85
2023/07/04 13:55:21;;;;;;;8.13;4.50;;;;;;;;;;5009691;28;20053;-87
2023/07/04 13:57:47;;;;;;;10.10;5.15;;;;;;;;;;5011680;28;20029;-84
2023/07/04 14:00:14;;;;;;;10.52;4.75;;;;;;;;;;5010917;28;20031;-86
2023/07/04 14:02:40;;;;;;;12.63;5.05;;;;;;;;;;5013557;28;20048;-87
2023/07/04 14:05:06;;;;;;;11.40;5.30;;;;;;;;;;5011672;28;20030;-87
2023/07/04 14:07:34;;;;;;;12.25;5.03;;;;;;;;;;5024747;28;20025;-83
2023/07/04 14:10:05;;;;;;;9.93;5.47;;;;;;;;;;5013495;28;20044;-86
2023/07/04 14:12:31;;;;;;;8.98;4.88;;;;;;;;;;5014241;28;20073;-87
2023/07/04 14:14:57;;;;;;;10.60;5.32;;;;;;;;;;5015801;28;20037;-84
2023/07/04 14:17:23;;;;;;;10.40;5.10;;;;;;;;;;5023404;28;20030;-85
2023/07/04 14:19:49;;;;;;;8.60;5.22;;;;;;;;;;5011159;28;20068;-85
2023/07/04 14:22:17;;;;;;;8.77;4.97;;;;;;;;;;5013995;28;20041;-84
2023/07/04 14:24:43;;;;;;;8.30;5.20;;;;;;;;;;5004854;28;20057;-85
2023/07/04 14:27:09;;;;;;;11.23;5.25;;;;;;;;;;5008728;28;20022;-85
2023/07/04 14:29:35;;;;;;;11.95;5.25;;;;;;;;;;5010214;28;20068;-83
2023/07/04 14:32:01;;;;;;;9.68;4.90;;;;;;;;;;5011413;28;20025;-83
2023/07/04 14:34:28;;;;;;;9.38;5.60;;;;;;;;;;5009170;28;20082;-84
2023/07/04 14:36:54;;;;;;;10.18;5.15;;;;;;;;;;5011946;28;20041;-84
2023/07/04 14:39:22;;;;;;;11.23;5.03;;;;;;;;;;5009608;28;20034;-84